Time;durP1;ratioP1;P1;durP2;ratioP2;P2;SDS_P1;SDS_P2;PMS_P1;PMS_P2;Temp;Humidity;BMP_temperature;BMP_pressure;BME280_temperature;BME280_humidity;BME280_pressure;Samples;Min_cycle;Max_cycle;Signal;HPM_P1;HPM_P2
2023/03/03 00:01:05;;;;;;;49.15;27.67;;;1.60;99.90;;;;;;5034022;28;20257;-87
2023/03/03 00:03:32;;;;;;;47.92;25.83;;;1.60;99.90;;;;;;5000103;28;20068;-88
2023/03/03 00:06:01;;;;;;;46.40;25.35;;;1.60;99.90;;;;;;5004750;28;20058;-86
2023/03/03 00:08:27;;;;;;;47.17;26.13;;;1.60;99.90;;;;;;5016649;28;20037;-87
2023/03/03 00:10:54;;;;;;;44.83;25.25;;;1.60;99.90;;;;;;5032591;28;20045;-88
2023/03/03 00:13:25;;;;;;;43.90;24.65;;;1.60;99.90;;;;;;5033350;28;20492;-87
2023/03/03 00:15:52;;;;;;;45.03;25.33;;;1.80;99.90;;;;;;5015870;28;20037;-88
2023/03/03 00:18:30;;;;;;;47.25;25.35;;;1.60;99.90;;;;;;4999546;28;20092;-87
2023/03/03 00:20:59;;;;;;;47.63;26.70;;;1.50;99.90;;;;;;5015594;28;20086;-87
2023/03/03 00:23:41;;;;;;;45.40;25.35;;;1.90;99.90;;;;;;5032924;28;20084;-87
2023/03/03 00:26:20;;;;;;;53.63;27.58;;;1.50;99.90;;;;;;5001051;28;20043;-87
2023/03/03 00:28:49;;;;;;;46.80;24.50;;;1.50;99.90;;;;;;5032276;28;20048;-87
2023/03/03 00:31:35;;;;;;;46.20;24.38;;;1.50;99.90;;;;;;5015093;28;20075;-87
2023/03/03 00:34:24;;;;;;;54.75;27.45;;;1.70;99.90;;;;;;5031176;28;20056;-87
2023/03/03 00:36:56;;;;;;;58.30;26.70;;;1.40;99.90;;;;;;5015109;28;20045;-87
2023/03/03 00:39:35;;;;;;;59.40;25.48;;;1.40;99.90;;;;;;5014727;28;20070;-87
2023/03/03 00:42:04;;;;;;;53.38;26.27;;;1.40;99.90;;;;;;5019604;28;20037;-87
2023/03/03 00:44:52;;;;;;;47.50;24.20;;;1.60;99.90;;;;;;5030992;28;20489;-86
2023/03/03 00:47:29;;;;;;;51.95;25.48;;;1.40;99.90;;;;;;5012068;28;20045;-87
2023/03/03 00:50:32;;;;;;;52.67;24.85;;;1.30;99.90;;;;;;5027934;28;20042;-87
2023/03/03 00:53:02;;;;;;;57.72;25.10;;;1.30;99.90;;;;;;5028328;28;20461;-87
2023/03/03 00:55:29;;;;;;;55.92;24.95;;;1.30;99.90;;;;;;4978274;28;20125;-87
2023/03/03 00:57:54;;;;;;;89.13;28.75;;;1.30;99.90;;;;;;5007218;28;20046;-87
2023/03/03 01:00:20;;;;;;;86.82;29.30;;;1.30;99.90;;;;;;4997992;28;20039;-87
2023/03/03 01:02:47;;;;;;;76.80;29.73;;;1.30;99.90;;;;;;4982232;28;20077;-87
2023/03/03 01:05:14;;;;;;;83.82;30.33;;;1.30;99.90;;;;;;4997989;28;20143;-87
2023/03/03 01:07:40;;;;;;;89.93;27.75;;;1.30;99.90;;;;;;5030781;28;20053;-86
2023/03/03 01:10:07;;;;;;;77.70;27.63;;;1.80;99.90;;;;;;5011139;28;20034;-87
2023/03/03 01:12:32;;;;;;;83.43;28.00;;;1.30;99.90;;;;;;5007485;28;20041;-87
2023/03/03 01:14:58;;;;;;;188.63;30.65;;;1.30;99.90;;;;;;5009904;28;20041;-87
2023/03/03 01:17:28;;;;;;;144.13;28.77;;;1.20;99.90;;;;;;5031425;28;20034;-87
2023/03/03 01:19:55;;;;;;;102.70;26.77;;;1.20;99.90;;;;;;4998091;28;20044;-87
2023/03/03 01:22:20;;;;;;;136.93;26.80;;;1.30;99.90;;;;;;4998516;28;20038;-87
2023/03/03 01:24:46;;;;;;;72.88;25.42;;;1.30;99.90;;;;;;4980145;28;20520;-87
2023/03/03 01:27:12;;;;;;;159.30;28.95;;;1.30;99.90;;;;;;4990561;28;20045;-87
2023/03/03 01:29:37;;;;;;;193.35;30.52;;;1.20;99.90;;;;;;4994489;28;20046;-87
2023/03/03 01:32:03;;;;;;;64.45;24.25;;;1.20;99.90;;;;;;4995131;28;20050;-87
2023/03/03 01:34:29;;;;;;;81.28;24.17;;;1.20;99.90;;;;;;4983083;28;20410;-86
2023/03/03 01:36:55;;;;;;;58.78;23.40;;;1.20;99.90;;;;;;5014638;28;20463;-87
2023/03/03 01:39:20;;;;;;;56.50;22.63;;;1.20;99.90;;;;;;4978427;28;20498;-87
2023/03/03 01:41:49;;;;;;;41.28;19.30;;;1.20;99.90;;;;;;5007310;28;20613;-87
2023/03/03 01:44:15;;;;;;;44.22;20.42;;;1.30;99.90;;;;;;4991309;28;20504;-87
2023/03/03 01:46:51;;;;;;;37.97;20.05;;;1.30;99.90;;;;;;5030266;28;20507;-87
2023/03/03 01:49:57;;;;;;;43.15;18.48;;;1.30;99.90;;;;;;5014416;28;20067;-87
2023/03/03 01:52:31;;;;;;;47.95;19.80;;;1.20;99.90;;;;;;5012688;28;20049;-87
2023/03/03 01:55:09;;;;;;;54.05;20.17;;;1.70;99.90;;;;;;5012696;28;20041;-87
2023/03/03 01:57:42;;;;;;;56.40;16.55;;;1.30;99.90;;;;;;5030938;28;20045;-87
2023/03/03 02:00:10;;;;;;;64.55;17.60;;;1.50;99.90;;;;;;4999926;28;20124;-86
2023/03/03 02:02:38;;;;;;;52.33;17.25;;;1.30;99.90;;;;;;5004969;28;20107;-87
2023/03/03 02:05:04;;;;;;;76.82;17.90;;;1.30;99.90;;;;;;4995582;28;20060;-87
2023/03/03 02:07:31;;;;;;;71.75;17.20;;;1.20;99.90;;;;;;4997897;28;20044;-87
2023/03/03 02:09:58;;;;;;;62.05;17.63;;;1.20;99.90;;;;;;5014772;28;20051;-87
2023/03/03 02:12:32;;;;;;;69.72;18.00;;;1.40;99.90;;;;;;5026726;28;20046;-87
2023/03/03 02:14:58;;;;;;;117.97;21.02;;;1.20;99.90;;;;;;5030216;28;20095;-87
2023/03/03 02:17:24;;;;;;;79.80;17.60;;;1.20;99.90;;;;;;5013964;28;20073;-87
2023/03/03 02:20:02;;;;;;;82.78;19.80;;;1.20;99.90;;;;;;5001426;28;20041;-87
2023/03/03 02:22:46;;;;;;;71.68;17.77;;;1.20;99.90;;;;;;5003912;28;20048;-87
2023/03/03 02:25:21;;;;;;;132.10;20.52;;;1.20;99.90;;;;;;5016151;28;20095;-87
2023/03/03 02:27:47;;;;;;;69.60;18.88;;;1.20;99.90;;;;;;5017485;28;20034;-87
2023/03/03 02:30:17;;;;;;;72.05;18.48;;;1.50;99.90;;;;;;5007672;28;20045;-86
2023/03/03 02:32:42;;;;;;;133.20;21.60;;;1.20;99.90;;;;;;5030522;28;20041;-87
2023/03/03 02:35:41;;;;;;;69.00;18.85;;;1.30;99.90;;;;;;4997557;28;20401;-87
2023/03/03 02:38:14;;;;;;;52.25;17.20;;;1.20;99.90;;;;;;4954518;28;20096;-87
2023/03/03 02:40:48;;;;;;;58.45;16.85;;;1.30;99.90;;;;;;5016426;28;20083;-87
2023/03/03 02:43:17;;;;;;;95.95;18.75;;;1.40;99.90;;;;;;5017456;28;20434;-87
2023/03/03 02:45:44;;;;;;;153.13;22.73;;;1.70;99.90;;;;;;5032996;28;20049;-87
2023/03/03 02:48:10;;;;;;;69.57;18.42;;;1.30;99.90;;;;;;5016997;28;20038;-87
2023/03/03 02:50:36;;;;;;;60.80;18.20;;;1.30;99.90;;;;;;4991436;28;20453;-87
2023/03/03 02:53:05;;;;;;;98.97;19.27;;;1.30;99.90;;;;;;5013251;28;20083;-87
2023/03/03 02:55:31;;;;;;;156.73;22.58;;;1.50;99.90;;;;;;4999879;28;20434;-87
2023/03/03 02:57:57;;;;;;;63.28;18.05;;;1.30;99.90;;;;;;5017269;28;20128;-87
2023/03/03 03:00:22;;;;;;;74.20;19.33;;;1.30;99.90;;;;;;4988544;28;20033;-86
2023/03/03 03:02:48;;;;;;;196.18;23.30;;;1.30;99.90;;;;;;5033241;28;20052;-87
2023/03/03 03:05:14;;;;;;;276.30;26.67;;;1.30;99.90;;;;;;4999175;28;20096;-87
2023/03/03 03:07:40;;;;;;;114.53;20.48;;;1.30;99.90;;;;;;5013268;28;20473;-87
2023/03/03 03:10:06;;;;;;;85.72;20.17;;;1.30;99.90;;;;;;5001828;28;20037;-87
2023/03/03 03:12:32;;;;;;;80.85;20.92;;;1.30;99.90;;;;;;5000278;28;20072;-87
2023/03/03 03:14:57;;;;;;;88.97;20.15;;;1.50;99.90;;;;;;5032724;28;20135;-87
2023/03/03 03:17:23;;;;;;;210.40;25.60;;;1.70;99.90;;;;;;4991079;28;20386;-87
2023/03/03 03:19:49;;;;;;;246.40;25.08;;;1.30;99.90;;;;;;4993141;28;20502;-87
2023/03/03 03:22:14;;;;;;;84.82;21.45;;;1.30;99.90;;;;;;4999545;28;20042;-86
2023/03/03 03:24:40;;;;;;;109.28;22.15;;;1.30;99.90;;;;;;5031992;28;20046;-87
2023/03/03 03:27:07;;;;;;;122.50;21.55;;;1.30;99.90;;;;;;4999607;28;20045;-86
2023/03/03 03:29:33;;;;;;;98.55;21.92;;;1.80;99.90;;;;;;5016606;28;20041;-86
2023/03/03 03:31:59;;;;;;;341.48;29.20;;;2.00;99.90;;;;;;5032763;28;20051;-87
2023/03/03 03:34:24;;;;;;;88.10;22.27;;;1.50;99.90;;;;;;5015018;28;20034;-87
2023/03/03 03:36:50;;;;;;;121.30;23.00;;;2.00;99.90;;;;;;4996684;28;20080;-87
2023/03/03 03:39:16;;;;;;;105.95;23.67;;;1.40;99.90;;;;;;4980594;28;20025;-87
2023/03/03 03:41:42;;;;;;;62.75;20.38;;;1.40;99.90;;;;;;4995795;28;20034;-86
2023/03/03 03:44:07;;;;;;;93.72;22.73;;;1.60;99.90;;;;;;4981080;28;20049;-86
2023/03/03 03:46:33;;;;;;;115.57;23.05;;;1.40;99.90;;;;;;4999418;28;20037;-87
2023/03/03 03:48:59;;;;;;;65.85;22.00;;;2.00;99.90;;;;;;5006759;28;20132;-86
2023/03/03 03:51:25;;;;;;;211.80;25.63;;;1.80;99.90;;;;;;4994662;28;20045;-86
2023/03/03 03:53:50;;;;;;;102.88;22.77;;;1.50;99.90;;;;;;4977284;28;20038;-87
2023/03/03 03:56:16;;;;;;;101.40;23.00;;;1.40;99.90;;;;;;5014263;28;20484;-87
2023/03/03 03:58:42;;;;;;;55.45;20.77;;;1.50;99.90;;;;;;5015826;28;20037;-87
2023/03/03 04:01:08;;;;;;;54.20;20.60;;;1.50;99.90;;;;;;4989291;28;20507;-87
2023/03/03 04:03:34;;;;;;;95.40;24.42;;;1.50;99.90;;;;;;5009417;28;20099;-86
2023/03/03 04:06:00;;;;;;;71.97;22.20;;;1.50;99.90;;;;;;4988171;28;20050;-87
2023/03/03 04:08:26;;;;;;;64.72;21.45;;;1.80;99.90;;;;;;5015275;28;20099;-86
2023/03/03 04:10:52;;;;;;;47.72;21.63;;;1.60;99.90;;;;;;5001194;28;20121;-86
2023/03/03 04:13:17;;;;;;;66.50;21.38;;;1.60;99.90;;;;;;5015506;28;20045;-87
2023/03/03 04:15:43;;;;;;;68.10;23.10;;;1.60;99.90;;;;;;4998715;28;20099;-86
2023/03/03 04:18:09;;;;;;;230.25;27.08;;;1.60;99.90;;;;;;5016203;28;20117;-86
2023/03/03 04:20:35;;;;;;;162.48;24.95;;;1.80;99.90;;;;;;4990671;28;20065;-86
2023/03/03 04:23:01;;;;;;;74.63;22.63;;;1.60;99.90;;;;;;5005144;28;20069;-87
2023/03/03 04:25:27;;;;;;;66.70;21.05;;;1.50;99.90;;;;;;4998402;28;20512;-87
2023/03/03 04:27:53;;;;;;;101.03;21.17;;;1.60;99.90;;;;;;4980122;28;20037;-87
2023/03/03 04:30:19;;;;;;;108.57;23.13;;;1.60;99.90;;;;;;5005734;28;20099;-87
2023/03/03 04:32:44;;;;;;;190.32;25.40;;;1.60;99.90;;;;;;5031470;28;20042;-87
2023/03/03 04:35:10;;;;;;;242.50;28.08;;;1.60;99.90;;;;;;5014739;28;20041;-87
2023/03/03 04:37:37;;;;;;;253.38;26.13;;;1.60;99.90;;;;;;5031220;28;20079;-86
2023/03/03 04:40:06;;;;;;;78.38;22.77;;;1.70;99.90;;;;;;5030870;28;20041;-86
2023/03/03 04:42:33;;;;;;;70.30;21.17;;;1.60;99.90;;;;;;5031506;28;20048;-87
2023/03/03 04:44:59;;;;;;;158.40;23.88;;;1.80;99.90;;;;;;4984807;28;20068;-86
2023/03/03 04:47:25;;;;;;;74.10;21.83;;;1.70;99.90;;;;;;5007313;28;20508;-86
2023/03/03 04:49:51;;;;;;;70.13;21.25;;;1.70;99.90;;;;;;5014838;28;20045;-86
2023/03/03 04:52:17;;;;;;;54.10;21.80;;;1.80;99.90;;;;;;5032208;28;20045;-86
2023/03/03 04:54:43;;;;;;;87.55;22.70;;;1.80;99.90;;;;;;5013629;28;20048;-87
2023/03/03 04:57:08;;;;;;;65.85;22.92;;;1.30;99.90;;;;;;5014971;28;20041;-87
2023/03/03 04:59:35;;;;;;;60.60;22.50;;;1.70;99.90;;;;;;4998449;28;20386;-86
2023/03/03 05:02:00;;;;;;;258.67;25.33;;;1.70;99.90;;;;;;4978897;28;20041;-87
2023/03/03 05:04:26;;;;;;;217.50;25.08;;;1.70;99.90;;;;;;4979150;28;20445;-86
2023/03/03 05:06:52;;;;;;;72.35;21.80;;;1.70;99.90;;;;;;5012400;28;20048;-86
2023/03/03 05:09:18;;;;;;;102.20;23.13;;;2.10;99.90;;;;;;5014788;28;20457;-86
2023/03/03 05:11:43;;;;;;;51.72;21.95;;;1.70;99.90;;;;;;5013542;28;20493;-86
2023/03/03 05:14:09;;;;;;;59.35;21.90;;;1.80;99.90;;;;;;4998346;28;20168;-87
2023/03/03 05:16:35;;;;;;;48.47;21.67;;;1.80;99.90;;;;;;5004050;28;20096;-86
2023/03/03 05:19:01;;;;;;;63.17;22.02;;;1.90;99.90;;;;;;5030698;28;20045;-87
2023/03/03 05:21:26;;;;;;;45.83;21.08;;;1.80;99.90;;;;;;5004266;28;20042;-87
2023/03/03 05:23:52;;;;;;;46.05;21.00;;;2.10;99.90;;;;;;5010227;28;20091;-86
2023/03/03 05:26:18;;;;;;;40.92;20.33;;;1.90;99.90;;;;;;5005703;28;20045;-86
2023/03/03 05:28:47;;;;;;;100.68;22.90;;;1.80;99.90;;;;;;5024653;28;20489;-87
2023/03/03 05:31:12;;;;;;;43.40;20.60;;;0.90;99.90;;;;;;5001173;28;20045;-86
2023/03/03 05:33:38;;;;;;;41.13;19.58;;;2.10;99.90;;;;;;5014444;28;20124;-86
2023/03/03 05:36:05;;;;;;;53.65;21.08;;;1.80;99.90;;;;;;4996899;28;20041;-86
2023/03/03 05:38:31;;;;;;;71.10;22.48;;;1.90;99.90;;;;;;5013888;28;20044;-87
2023/03/03 05:40:56;;;;;;;48.08;21.08;;;1.90;99.90;;;;;;5003158;28;20404;-87
2023/03/03 05:43:22;;;;;;;52.53;19.25;;;1.90;99.90;;;;;;5014592;28;20045;-87
2023/03/03 05:45:54;;;;;;;71.78;20.85;;;1.90;99.90;;;;;;5001740;28;20073;-87
2023/03/03 05:48:20;;;;;;;58.42;20.08;;;2.80;99.90;;;;;;5018698;28;20048;-87
2023/03/03 05:50:45;;;;;;;53.40;19.73;;;2.00;99.90;;;;;;5017837;28;20098;-87
2023/03/03 05:53:11;;;;;;;57.25;20.17;;;2.00;99.90;;;;;;5018224;28;20084;-86
2023/03/03 05:55:37;;;;;;;235.68;25.13;;;2.00;99.90;;;;;;4985229;28;20684;-86
2023/03/03 05:58:03;;;;;;;44.03;19.80;;;1.90;99.90;;;;;;5015380;28;20065;-86
2023/03/03 06:00:28;;;;;;;56.17;19.58;;;1.90;99.90;;;;;;4995924;28;20477;-85
2023/03/03 06:02:54;;;;;;;68.90;20.42;;;2.30;99.90;;;;;;5004702;28;20089;-84
2023/03/03 06:05:20;;;;;;;39.05;19.13;;;1.90;99.90;;;;;;5014497;28;20045;-85
2023/03/03 06:07:52;;;;;;;132.45;21.92;;;1.90;99.90;;;;;;5021547;28;20056;-93
2023/03/03 06:10:18;;;;;;;41.80;19.02;;;2.00;99.90;;;;;;4994139;28;20107;-85
2023/03/03 06:12:45;;;;;;;44.30;18.98;;;1.90;99.90;;;;;;5005515;28;20065;-85
2023/03/03 06:15:11;;;;;;;58.33;20.70;;;2.00;99.90;;;;;;5023017;28;20143;-85
2023/03/03 06:17:37;;;;;;;65.32;21.50;;;2.00;99.90;;;;;;5017751;28;20045;-84
2023/03/03 06:20:03;;;;;;;40.40;18.83;;;2.30;99.90;;;;;;4996267;28;20041;-86
2023/03/03 06:22:32;;;;;;;47.95;19.92;;;2.00;99.90;;;;;;5008426;28;20041;-84
2023/03/03 06:24:58;;;;;;;152.43;23.42;;;2.00;99.90;;;;;;5010449;28;20440;-84
2023/03/03 06:27:23;;;;;;;49.13;20.50;;;1.80;99.90;;;;;;5012956;28;20076;-83
2023/03/03 06:29:49;;;;;;;48.30;19.65;;;2.00;99.90;;;;;;5009403;28;20072;-83
2023/03/03 06:32:15;;;;;;;41.03;18.92;;;2.00;99.90;;;;;;5006187;28;20046;-84
2023/03/03 06:34:41;;;;;;;42.90;19.63;;;2.00;99.90;;;;;;5013823;28;20049;-83
2023/03/03 06:37:06;;;;;;;48.85;20.00;;;2.00;99.90;;;;;;5000940;28;20056;-83
2023/03/03 06:39:32;;;;;;;48.35;19.52;;;2.10;99.90;;;;;;5020984;28;20040;-83
2023/03/03 06:41:58;;;;;;;54.38;20.83;;;2.10;99.90;;;;;;4985358;28;20044;-83
2023/03/03 06:44:24;;;;;;;43.67;19.80;;;2.10;99.90;;;;;;5002998;28;20042;-83
2023/03/03 06:46:50;;;;;;;40.95;18.90;;;2.10;99.90;;;;;;5000157;28;20140;-83
2023/03/03 06:49:15;;;;;;;50.47;20.17;;;2.20;99.90;;;;;;5018629;28;21655;-84
2023/03/03 06:51:42;;;;;;;46.03;19.40;;;2.40;99.90;;;;;;4993732;28;20052;-85
2023/03/03 06:54:20;;;;;;;53.70;20.20;;;2.50;99.90;;;;;;5012932;28;20076;-84
2023/03/03 06:56:47;;;;;;;48.10;20.13;;;2.20;99.90;;;;;;5018398;28;20049;-87
2023/03/03 06:59:18;;;;;;;43.05;19.35;;;2.20;99.90;;;;;;5017074;28;20060;-87
2023/03/03 07:01:46;;;;;;;49.30;20.53;;;1.80;99.90;;;;;;4974341;28;20092;-89
2023/03/03 07:04:33;;;;;;;58.05;21.13;;;2.20;99.90;;;;;;5010721;28;20140;-87
2023/03/03 07:07:10;;;;;;;49.25;18.83;;;2.30;99.90;;;;;;5019295;28;20045;-87
2023/03/03 07:09:36;;;;;;;41.40;18.30;;;2.80;99.90;;;;;;5016743;28;20456;-87
2023/03/03 07:12:12;;;;;;;51.95;19.08;;;2.50;99.90;;;;;;5014083;28;20045;-86
2023/03/03 07:14:46;;;;;;;41.10;18.58;;;2.40;99.90;;;;;;5032895;28;20068;-86
2023/03/03 07:17:17;;;;;;;59.22;19.58;;;2.40;99.90;;;;;;5033513;28;20073;-88
2023/03/03 07:19:43;;;;;;;49.95;19.25;;;2.40;99.90;;;;;;5033581;28;20037;-88
2023/03/03 07:22:38;;;;;;;49.13;20.27;;;2.40;99.90;;;;;;5032891;28;20040;-88
2023/03/03 07:25:25;;;;;;;52.58;20.33;;;2.40;99.90;;;;;;4987370;28;20049;-87
2023/03/03 07:27:55;;;;;;;51.40;20.13;;;2.50;99.90;;;;;;4998507;28;20070;-87
2023/03/03 07:30:25;;;;;;;54.85;20.77;;;2.60;99.90;;;;;;5016456;28;20044;-87
2023/03/03 07:32:55;;;;;;;51.97;20.55;;;2.50;99.90;;;;;;5032967;28;20041;-88
2023/03/03 07:35:41;;;;;;;55.17;20.90;;;2.50;99.90;;;;;;5031574;28;20036;-88
2023/03/03 07:38:24;;;;;;;61.30;20.85;;;2.60;99.90;;;;;;5002598;28;20120;-88
2023/03/03 07:40:53;;;;;;;49.33;20.05;;;2.60;99.90;;;;;;5023159;28;20125;-86
2023/03/03 07:43:28;;;;;;;48.45;20.35;;;2.60;99.90;;;;;;5031593;28;20046;-87
2023/03/03 07:46:24;;;;;;;47.65;20.98;;;2.60;99.90;;;;;;5014063;28;20128;-87
2023/03/03 07:48:51;;;;;;;47.95;20.20;;;2.60;99.90;;;;;;5014762;28;20497;-86
2023/03/03 07:51:26;;;;;;;49.42;20.70;;;2.60;99.90;;;;;;5011429;28;20515;-86
2023/03/03 07:54:12;;;;;;;42.08;19.15;;;2.90;99.90;;;;;;5014063;28;20511;-86
2023/03/03 07:56:39;;;;;;;51.90;19.52;;;2.60;99.90;;;;;;4999396;28;20057;-86
2023/03/03 07:59:23;;;;;;;47.58;20.27;;;2.90;99.90;;;;;;5031106;28;20103;-86
2023/03/03 08:01:52;;;;;;;48.42;20.25;;;2.70;99.90;;;;;;5006752;28;20173;-86
2023/03/03 08:04:40;;;;;;;48.75;21.30;;;3.20;99.90;;;;;;5030696;28;20452;-85
2023/03/03 08:07:17;;;;;;;52.30;22.13;;;2.80;99.90;;;;;;5030136;28;20504;-86
2023/03/03 08:09:55;;;;;;;49.38;22.30;;;2.90;99.90;;;;;;5013303;28;20669;-86
2023/03/03 08:12:41;;;;;;;49.13;21.33;;;3.00;99.90;;;;;;5020772;28;20033;-86
2023/03/03 08:15:24;;;;;;;42.55;19.75;;;3.10;99.90;;;;;;5013263;28;21008;-86
2023/03/03 08:17:52;;;;;;;43.53;19.58;;;3.20;99.90;;;;;;5031404;28;20049;-86
2023/03/03 08:20:48;;;;;;;47.67;20.35;;;3.30;99.90;;;;;;5003091;28;20033;-85
2023/03/03 08:23:19;;;;;;;44.45;19.83;;;3.80;99.90;;;;;;5025250;28;20030;-85
2023/03/03 08:25:46;;;;;;;47.17;21.25;;;3.60;99.90;;;;;;5006318;28;20073;-86
2023/03/03 08:28:12;;;;;;;45.38;20.45;;;3.70;99.90;;;;;;5013627;28;20489;-87
2023/03/03 08:30:39;;;;;;;48.50;21.17;;;3.70;99.90;;;;;;4997541;28;20108;-87
2023/03/03 08:33:05;;;;;;;43.75;20.10;;;3.70;99.90;;;;;;5028226;28;20037;-87
2023/03/03 08:35:31;;;;;;;49.58;22.20;;;3.80;99.90;;;;;;5010742;28;20129;-87
2023/03/03 08:37:57;;;;;;;48.33;20.98;;;3.80;99.90;;;;;;5010943;28;20038;-88
2023/03/03 08:40:22;;;;;;;40.65;19.63;;;3.80;99.90;;;;;;5024538;28;20428;-88
2023/03/03 08:42:48;;;;;;;39.78;18.80;;;3.90;99.90;;;;;;4993807;28;20037;-88
2023/03/03 08:45:15;;;;;;;39.05;17.73;;;3.90;99.90;;;;;;5018673;28;20034;-87
2023/03/03 08:47:42;;;;;;;32.40;16.83;;;4.10;99.90;;;;;;5002542;28;20040;-85
2023/03/03 08:50:08;;;;;;;35.08;16.85;;;4.20;99.90;;;;;;5016758;28;20075;-85
2023/03/03 08:52:34;;;;;;;34.83;17.30;;;4.30;99.90;;;;;;4985310;28;20383;-86
2023/03/03 08:55:00;;;;;;;30.25;15.57;;;5.00;99.90;;;;;;4967402;28;20040;-86
2023/03/03 08:57:25;;;;;;;26.58;13.65;;;4.60;99.90;;;;;;4997145;28;20045;-86
2023/03/03 08:59:51;;;;;;;31.27;15.13;;;4.70;99.90;;;;;;5014677;28;20148;-88
2023/03/03 09:02:17;;;;;;;29.73;15.25;;;4.80;99.90;;;;;;5035988;28;20037;-89
2023/03/03 09:04:43;;;;;;;28.40;14.88;;;4.90;99.90;;;;;;4995619;28;20107;-89
2023/03/03 09:07:08;;;;;;;22.50;12.25;;;5.10;99.90;;;;;;5011424;28;20057;-94
2023/03/03 09:09:36;;;;;;;24.75;12.95;;;5.20;99.90;;;;;;5014271;28;20081;-87
2023/03/03 09:12:27;;;;;;;26.63;13.95;;;5.20;99.90;;;;;;5011367;28;20099;-87
2023/03/03 09:14:57;;;;;;;20.65;12.18;;;5.50;99.90;;;;;;5027700;28;20056;-86
2023/03/03 09:17:31;;;;;;;23.02;12.38;;;5.50;99.90;;;;;;5028555;28;20124;-87
2023/03/03 09:20:29;;;;;;;25.35;14.13;;;5.60;99.90;;;;;;5009790;28;20081;-87
2023/03/03 09:22:55;;;;;;;24.20;12.90;;;5.70;99.90;;;;;;5011418;28;20041;-86
2023/03/03 09:25:33;;;;;;;27.25;12.43;;;5.70;99.90;;;;;;5010987;28;20083;-87
2023/03/03 09:28:01;;;;;;;24.65;12.52;;;5.70;99.90;;;;;;5040872;28;20114;-86
2023/03/03 09:30:33;;;;;;;22.75;13.18;;;5.80;99.90;;;;;;5011395;28;20060;-86
2023/03/03 09:32:58;;;;;;;;;;;5.80;99.90;;;;;;5028668;28;20052;-86
2023/03/03 09:35:35;;;;;;;20.50;12.15;;;5.80;99.90;;;;;;5011800;28;19917;-84
2023/03/03 09:38:20;;;;;;;23.55;11.68;;;5.80;99.90;;;;;;5026888;28;20073;-84
2023/03/03 09:41:01;;;;;;;20.23;11.13;;;5.80;99.90;;;;;;5020283;28;20037;-84
2023/03/03 09:43:45;;;;;;;18.60;10.95;;;5.70;99.90;;;;;;5023157;28;20045;-84
2023/03/03 09:46:26;;;;;;;20.52;11.57;;;5.70;99.90;;;;;;5022669;28;20073;-86
2023/03/03 09:48:57;;;;;;;18.48;10.45;;;5.70;99.90;;;;;;5013225;28;20041;-86
2023/03/03 09:51:23;;;;;;;18.85;10.63;;;5.60;99.90;;;;;;5013088;28;20103;-89
2023/03/03 09:54:12;;;;;;;20.83;10.52;;;5.50;99.90;;;;;;5013009;28;20038;-89
2023/03/03 09:57:25;;;;;;;19.13;10.88;;;5.60;99.90;;;;;;5021021;28;20049;-88
2023/03/03 10:00:22;;;;;;;18.75;10.65;;;5.50;99.90;;;;;;5009828;28;20081;-86
2023/03/03 10:03:24;;;;;;;18.75;10.23;;;5.50;99.90;;;;;;4950748;28;20049;-86
2023/03/03 10:05:50;;;;;;;19.73;11.15;;;5.50;99.90;;;;;;5027470;28;20504;-87
2023/03/03 10:08:35;;;;;;;19.35;10.40;;;5.50;99.90;;;;;;5011470;28;20047;-87
2023/03/03 10:11:12;;;;;;;18.67;10.85;;;5.50;99.90;;;;;;5023596;28;20049;-87
2023/03/03 10:13:56;;;;;;;18.40;10.70;;;5.40;99.90;;;;;;5018065;28;20041;-89
2023/03/03 10:16:49;;;;;;;17.80;10.50;;;5.50;99.90;;;;;;5016557;28;20103;-88
2023/03/03 10:19:33;;;;;;;17.17;10.60;;;5.50;99.90;;;;;;5027338;28;20041;-87
2023/03/03 10:22:14;;;;;;;21.05;12.00;;;5.40;99.90;;;;;;5035904;28;20041;-89
2023/03/03 10:24:59;;;;;;;18.38;11.00;;;5.40;99.90;;;;;;5019093;28;20160;-87
2023/03/03 10:27:52;;;;;;;22.33;12.82;;;5.40;99.90;;;;;;5011524;28;20049;-88
2023/03/03 10:30:38;;;;;;;23.38;13.63;;;5.40;99.90;;;;;;5009637;28;20049;-87
2023/03/03 10:33:36;;;;;;;21.38;13.90;;;5.40;99.90;;;;;;5020868;28;20040;-88
2023/03/03 10:36:49;;;;;;;18.77;10.95;;;5.50;99.90;;;;;;5023307;28;20048;-89
2023/03/03 10:39:32;;;;;;;17.35;11.20;;;5.40;99.90;;;;;;4936958;28;20043;-89
2023/03/03 10:42:22;;;;;;;18.35;11.32;;;5.40;99.90;;;;;;5024081;28;20097;-89
2023/03/03 10:45:00;;;;;;;19.70;10.90;;;5.40;99.90;;;;;;5029885;28;20045;-89
2023/03/03 10:47:35;;;;;;;20.67;11.38;;;5.30;99.90;;;;;;5014612;28;20045;-88
2023/03/03 10:50:29;;;;;;;17.85;11.40;;;5.30;99.90;;;;;;5013348;28;20098;-90
2023/03/03 10:53:08;;;;;;;19.33;13.38;;;5.30;99.90;;;;;;5028104;28;20041;-89
2023/03/03 10:55:48;;;;;;;20.65;12.38;;;5.20;99.90;;;;;;5028837;28;20063;-88
2023/03/03 10:58:44;;;;;;;19.70;12.13;;;5.30;99.90;;;;;;4986555;28;20053;-88
2023/03/03 11:01:32;;;;;;;18.45;11.75;;;5.30;99.90;;;;;;5018673;28;20481;-89
2023/03/03 11:04:45;;;;;;;20.13;12.85;;;5.40;99.90;;;;;;5037959;28;20049;-88
2023/03/03 11:07:27;;;;;;;18.25;11.32;;;5.50;99.90;;;;;;4977394;28;20158;-89
2023/03/03 11:10:30;;;;;;;17.20;11.47;;;5.60;99.90;;;;;;4980617;28;20046;-88
2023/03/03 11:13:14;;;;;;;18.70;10.80;;;5.80;99.90;;;;;;4918109;28;20566;-90
2023/03/03 11:15:59;;;;;;;18.90;10.40;;;5.90;99.90;;;;;;5011672;28;20522;-90
2023/03/03 11:18:32;;;;;;;15.35;9.50;;;6.00;99.90;;;;;;4999580;28;20122;-92
2023/03/03 11:21:14;;;;;;;18.23;10.35;;;6.10;99.90;;;;;;5033837;28;20128;-90
2023/03/03 11:24:04;;;;;;;17.90;9.55;;;6.30;99.90;;;;;;5000600;28;20034;-93
2023/03/03 11:26:54;;;;;;;17.73;9.70;;;6.40;99.90;;;;;;5013312;28;20042;-94
2023/03/03 11:29:37;;;;;;;16.67;11.02;;;6.60;99.90;;;;;;5031851;28;20481;-94
2023/03/03 11:32:21;;;;;;;17.73;11.07;;;6.60;99.90;;;;;;5014164;28;20057;-95
2023/03/03 11:35:16;;;;;;;17.63;9.85;;;6.70;99.90;;;;;;5006164;28;20037;-94
2023/03/03 11:38:01;;;;;;;20.67;11.80;;;6.80;99.90;;;;;;4972974;28;20447;-94
2023/03/03 11:40:40;;;;;;;14.48;9.00;;;6.80;99.90;;;;;;5015833;28;20119;-94
2023/03/03 11:43:29;;;;;;;15.25;8.73;;;6.90;99.90;;;;;;5021345;28;20304;-94
2023/03/03 11:46:21;;;;;;;16.42;9.32;;;6.90;99.90;;;;;;5031552;28;20045;-94
2023/03/03 11:48:53;;;;;;;14.18;9.50;;;7.00;99.90;;;;;;5015357;28;20038;-95
2023/03/03 11:51:41;;;;;;;15.07;8.85;;;7.00;99.90;;;;;;5011718;28;20041;-94
2023/03/03 11:54:24;;;;;;;15.82;8.95;;;6.90;99.90;;;;;;5025267;28;20037;-94
2023/03/03 11:56:58;;;;;;;16.10;8.70;;;7.00;99.90;;;;;;5023249;28;20057;-94
2023/03/03 11:59:39;;;;;;;12.13;7.22;;;7.00;99.90;;;;;;5017068;28;20041;-94
2023/03/03 12:02:27;;;;;;;11.25;6.70;;;7.10;99.90;;;;;;5014717;28;20101;-94
2023/03/03 12:05:09;;;;;;;11.23;5.95;;;7.10;99.90;;;;;;5010372;28;20042;-94
2023/03/03 12:07:48;;;;;;;12.00;5.63;;;7.20;99.90;;;;;;5017943;28;20495;-94
2023/03/03 12:10:25;;;;;;;12.05;6.30;;;7.20;99.90;;;;;;5033525;28;20405;-94
2023/03/03 12:12:59;;;;;;;10.40;5.95;;;7.30;99.90;;;;;;5033400;28;20049;-94
2023/03/03 12:15:32;;;;;;;9.93;5.32;;;7.40;99.90;;;;;;5032855;28;20127;-95
2023/03/03 12:18:25;;;;;;;11.57;5.30;;;7.30;99.90;;;;;;5017168;28;20041;-94
2023/03/03 12:21:20;;;;;;;9.32;4.90;;;7.40;99.90;;;;;;5020170;28;20038;-94
2023/03/03 12:23:57;;;;;;;10.10;4.80;;;7.40;99.90;;;;;;5014696;28;20092;-94
2023/03/03 12:26:52;;;;;;;10.48;5.00;;;7.40;99.90;;;;;;5000084;28;20081;-94
2023/03/03 12:29:24;;;;;;;10.07;4.90;;;7.50;99.90;;;;;;5002650;28;20049;-94
2023/03/03 12:32:20;;;;;;;7.70;4.18;;;7.70;99.90;;;;;;5021949;28;20045;-94
2023/03/03 12:34:57;;;;;;;8.75;3.63;;;7.80;99.90;;;;;;5001949;28;20047;-94
2023/03/03 12:38:00;;;;;;;7.28;3.40;;;7.80;99.90;;;;;;5027391;28;20041;-95
2023/03/03 12:40:55;;;;;;;8.27;3.88;;;7.80;99.90;;;;;;5032617;28;20038;-94
2023/03/03 12:43:42;;;;;;;9.95;4.70;;;7.80;99.90;;;;;;4997040;28;20504;-94
2023/03/03 12:46:22;;;;;;;10.43;5.55;;;7.90;99.90;;;;;;5013154;28;20073;-94
2023/03/03 12:48:48;;;;;;;7.68;4.50;;;7.90;99.90;;;;;;5024853;28;20041;-94
2023/03/03 12:51:42;;;;;;;6.72;2.70;;;7.90;99.90;;;;;;5016469;28;20037;-94
2023/03/03 12:54:17;;;;;;;6.45;2.70;;;7.80;99.90;;;;;;5015543;28;20580;-94
2023/03/03 12:56:54;;;;;;;6.80;2.90;;;7.70;99.90;;;;;;4996226;28;20091;-94
2023/03/03 12:59:44;;;;;;;6.82;2.80;;;7.70;99.90;;;;;;5027054;28;20033;-94
2023/03/03 13:02:38;;;;;;;6.32;2.30;;;7.60;99.90;;;;;;4996955;28;20038;-94
2023/03/03 13:05:17;;;;;;;7.20;2.88;;;7.60;99.90;;;;;;5016032;28;20045;-94
2023/03/03 13:07:56;;;;;;;8.23;2.75;;;7.60;99.90;;;;;;5033253;28;20045;-94
2023/03/03 13:10:45;;;;;;;6.22;2.50;;;7.50;99.90;;;;;;5015249;28;20127;-94